sensor_id;sensor_type;location;lat;lon;timestamp;pressure;altitude;pressure_sealevel;temperature;humidity
58967;BME280;44744;51.894;5.080;2023-04-22T00:00:33;100955.88;;;9.44;79.31
58967;BME280;44744;51.894;5.080;2023-04-22T00:01:34;100956.42;;;9.43;79.36
58967;BME280;44744;51.894;5.080;2023-04-22T00:02:34;100956.50;;;9.42;79.21
58967;BME280;44744;51.894;5.080;2023-04-22T00:03:34;100959.03;;;9.40;79.38
58967;BME280;44744;51.894;5.080;2023-04-22T00:05:24;100959.10;;;9.39;79.51
58967;BME280;44744;51.894;5.080;2023-04-22T00:06:24;100959.27;;;9.36;79.56
58967;BME280;44744;51.894;5.080;2023-04-22T00:07:24;100958.23;;;9.35;79.71
58967;BME280;44744;51.894;5.080;2023-04-22T00:08:25;100960.20;;;9.34;79.68
58967;BME280;44744;51.894;5.080;2023-04-22T00:09:25;100960.09;;;9.33;79.80
58967;BME280;44744;51.894;5.080;2023-04-22T00:10:26;100960.95;;;9.33;79.90
58967;BME280;44744;51.894;5.080;2023-04-22T00:11:26;100961.70;;;9.33;79.92
58967;BME280;44744;51.894;5.080;2023-04-22T00:12:27;100964.36;;;9.33;79.97
58967;BME280;44744;51.894;5.080;2023-04-22T00:13:27;100965.08;;;9.32;80.02
58967;BME280;44744;51.894;5.080;2023-04-22T00:14:28;100958.52;;;9.29;79.95
58967;BME280;44744;51.894;5.080;2023-04-22T00:15:28;100960.20;;;9.27;80.13
58967;BME280;44744;51.894;5.080;2023-04-22T00:16:28;100959.27;;;9.28;80.36
58967;BME280;44744;51.894;5.080;2023-04-22T00:17:29;100955.66;;;9.26;80.09
58967;BME280;44744;51.894;5.080;2023-04-22T00:18:29;100950.27;;;9.24;80.12
58967;BME280;44744;51.894;5.080;2023-04-22T00:19:29;100949.22;;;9.24;80.02
58967;BME280;44744;51.894;5.080;2023-04-22T00:20:30;100947.50;;;9.23;80.21
58967;BME280;44744;51.894;5.080;2023-04-22T00:21:30;100945.82;;;9.21;80.17
58967;BME280;44744;51.894;5.080;2023-04-22T00:22:30;100944.13;;;9.20;80.18
58967;BME280;44744;51.894;5.080;2023-04-22T00:23:31;100946.78;;;9.20;80.42
58967;BME280;44744;51.894;5.080;2023-04-22T00:24:33;100946.51;;;9.18;80.36
58967;BME280;44744;51.894;5.080;2023-04-22T00:25:34;100948.86;;;9.17;80.43
58967;BME280;44744;51.894;5.080;2023-04-22T00:26:34;100950.86;;;9.15;80.53
58967;BME280;44744;51.894;5.080;2023-04-22T00:27:35;100951.12;;;9.14;80.40
58967;BME280;44744;51.894;5.080;2023-04-22T00:28:35;100952.09;;;9.12;80.24
58967;BME280;44744;51.894;5.080;2023-04-22T00:29:36;100951.30;;;9.10;80.20
58967;BME280;44744;51.894;5.080;2023-04-22T00:30:36;100950.84;;;9.08;80.16
58967;BME280;44744;51.894;5.080;2023-04-22T00:31:36;100952.90;;;9.06;80.02
58967;BME280;44744;51.894;5.080;2023-04-22T00:32:37;100949.75;;;9.01;79.94
58967;BME280;44744;51.894;5.080;2023-04-22T00:33:37;100948.25;;;9.00;80.03
58967;BME280;44744;51.894;5.080;2023-04-22T00:34:37;100947.45;;;8.98;79.76
58967;BME280;44744;51.894;5.080;2023-04-22T00:35:38;100946.88;;;8.95;79.84
58967;BME280;44744;51.894;5.080;2023-04-22T00:36:38;100947.38;;;8.92;79.80
58967;BME280;44744;51.894;5.080;2023-04-22T00:37:38;100947.08;;;8.91;79.78
58967;BME280;44744;51.894;5.080;2023-04-22T00:38:40;100951.23;;;8.89;80.08
58967;BME280;44744;51.894;5.080;2023-04-22T00:39:42;100950.25;;;8.87;80.05
58967;BME280;44744;51.894;5.080;2023-04-22T00:40:43;100950.88;;;8.84;79.90
58967;BME280;44744;51.894;5.080;2023-04-22T00:41:43;100949.89;;;8.83;80.18
58967;BME280;44744;51.894;5.080;2023-04-22T00:42:43;100951.55;;;8.82;80.03
58967;BME280;44744;51.894;5.080;2023-04-22T00:43:44;100948.13;;;8.79;80.23
58967;BME280;44744;51.894;5.080;2023-04-22T00:44:46;100946.07;;;8.78;80.26
58967;BME280;44744;51.894;5.080;2023-04-22T00:45:48;100942.25;;;8.77;80.22
58967;BME280;44744;51.894;5.080;2023-04-22T00:46:49;100947.09;;;8.75;80.03
58967;BME280;44744;51.894;5.080;2023-04-22T00:47:50;100945.83;;;8.72;79.78
58967;BME280;44744;51.894;5.080;2023-04-22T00:49:09;100951.59;;;8.69;79.96
58967;BME280;44744;51.894;5.080;2023-04-22T00:50:10;100951.48;;;8.63;79.60
58967;BME280;44744;51.894;5.080;2023-04-22T00:51:13;100954.08;;;8.61;79.50
58967;BME280;44744;51.894;5.080;2023-04-22T00:52:13;100954.03;;;8.58;79.61
58967;BME280;44744;51.894;5.080;2023-04-22T00:53:13;100957.48;;;8.56;79.67
58967;BME280;44744;51.894;5.080;2023-04-22T00:54:14;100952.66;;;8.53;79.57
58967;BME280;44744;51.894;5.080;2023-04-22T00:55:14;100952.73;;;8.51;79.52
58967;BME280;44744;51.894;5.080;2023-04-22T00:56:16;100959.17;;;8.49;79.50
58967;BME280;44744;51.894;5.080;2023-04-22T00:57:17;100954.32;;;8.47;79.32
58967;BME280;44744;51.894;5.080;2023-04-22T00:58:18;100953.52;;;8.45;79.26
58967;BME280;44744;51.894;5.080;2023-04-22T00:59:21;100953.95;;;8.43;79.23
58967;BME280;44744;51.894;5.080;2023-04-22T01:00:23;100956.70;;;8.40;79.07
58967;BME280;44744;51.894;5.080;2023-04-22T01:01:23;100954.89;;;8.37;79.04
58967;BME280;44744;51.894;5.080;2023-04-22T01:02:24;100956.76;;;8.35;78.81
58967;BME280;44744;51.894;5.080;2023-04-22T01:03:26;100956.86;;;8.33;78.73
58967;BME280;44744;51.894;5.080;2023-04-22T01:04:27;100953.23;;;8.28;78.59
58967;BME280;44744;51.894;5.080;2023-04-22T01:05:29;100956.85;;;8.25;78.78
58967;BME280;44744;51.894;5.080;2023-04-22T01:06:30;100956.56;;;8.24;78.81
58967;BME280;44744;51.894;5.080;2023-04-22T01:07:30;100959.05;;;8.23;78.79
58967;BME280;44744;51.894;5.080;2023-04-22T01:08:31;100958.23;;;8.21;78.86
58967;BME280;44744;51.894;5.080;2023-04-22T01:09:31;100958.29;;;8.20;78.76
58967;BME280;44744;51.894;5.080;2023-04-22T01:11:05;100958.23;;;8.17;79.00
58967;BME280;44744;51.894;5.080;2023-04-22T01:12:05;100961.05;;;8.13;78.91
58967;BME280;44744;51.894;5.080;2023-04-22T01:13:06;100963.16;;;8.09;79.17
58967;BME280;44744;51.894;5.080;2023-04-22T01:14:06;100963.88;;;8.09;79.43
58967;BME280;44744;51.894;5.080;2023-04-22T01:15:07;100959.98;;;8.10;79.56
58967;BME280;44744;51.894;5.080;2023-04-22T01:16:11;100960.85;;;8.10;79.69
58967;BME280;44744;51.894;5.080;2023-04-22T01:17:12;100962.60;;;8.10;79.80
58967;BME280;44744;51.894;5.080;2023-04-22T01:18:14;100961.01;;;8.10;79.91
58967;BME280;44744;51.894;5.080;2023-04-22T01:19:15;100961.52;;;8.10;80.13
58967;BME280;44744;51.894;5.080;2023-04-22T01:20:15;100959.54;;;8.12;80.33
58967;BME280;44744;51.894;5.080;2023-04-22T01:21:15;100960.91;;;8.13;80.32
58967;BME280;44744;51.894;5.080;2023-04-22T01:22:16;100960.05;;;8.12;80.45
58967;BME280;44744;51.894;5.080;2023-04-22T01:23:18;100958.83;;;8.12;80.69
58967;BME280;44744;51.894;5.080;2023-04-22T01:24:19;100966.09;;;8.11;80.75
58967;BME280;44744;51.894;5.080;2023-04-22T01:25:20;100966.66;;;8.10;80.62
58967;BME280;44744;51.894;5.080;2023-04-22T01:26:20;100961.79;;;8.08;80.57
58967;BME280;44744;51.894;5.080;2023-04-22T01:27:21;100965.52;;;8.08;80.72
58967;BME280;44744;51.894;5.080;2023-04-22T01:28:22;100962.19;;;8.07;80.77
58967;BME280;44744;51.894;5.080;2023-04-22T01:29:31;100958.12;;;8.08;81.01
58967;BME280;44744;51.894;5.080;2023-04-22T01:30:32;100955.86;;;8.06;81.08
58967;BME280;44744;51.894;5.080;2023-04-22T01:31:32;100958.49;;;8.07;81.24
58967;BME280;44744;51.894;5.080;2023-04-22T01:32:33;100960.23;;;8.07;81.34
58967;BME280;44744;51.894;5.080;2023-04-22T01:33:33;100962.17;;;8.08;81.50
58967;BME280;44744;51.894;5.080;2023-04-22T01:34:34;100962.04;;;8.07;81.30
58967;BME280;44744;51.894;5.080;2023-04-22T01:35:35;100963.86;;;8.05;81.42
58967;BME280;44744;51.894;5.080;2023-04-22T01:36:36;100960.80;;;8.03;81.63
58967;BME280;44744;51.894;5.080;2023-04-22T01:37:36;100962.73;;;8.03;81.53
58967;BME280;44744;51.894;5.080;2023-04-22T01:38:37;100959.30;;;8.00;81.39
58967;BME280;44744;51.894;5.080;2023-04-22T01:39:38;100957.30;;;7.98;81.45
58967;BME280;44744;51.894;5.080;2023-04-22T01:40:39;100956.15;;;7.96;81.52
58967;BME280;44744;51.894;5.080;2023-04-22T01:42:51;100952.29;;;7.92;81.68
58967;BME280;44744;51.894;5.080;2023-04-22T01:43:57;100953.64;;;7.93;81.74
58967;BME280;44744;51.894;5.080;2023-04-22T01:44:57;100953.48;;;7.92;81.72
58967;BME280;44744;51.894;5.080;2023-04-22T01:46:00;100954.19;;;7.92;81.65
58967;BME280;44744;51.894;5.080;2023-04-22T01:48:53;100957.60;;;7.86;81.82
58967;BME280;44744;51.894;5.080;2023-04-22T01:49:54;100958.77;;;7.84;81.60
58967;BME280;44744;51.894;5.080;2023-04-22T01:50:54;100962.81;;;7.83;81.73
58967;BME280;44744;51.894;5.080;2023-04-22T01:51:54;100967.95;;;7.83;81.99
58967;BME280;44744;51.894;5.080;2023-04-22T01:52:56;100965.52;;;7.82;82.09
58967;BME280;44744;51.894;5.080;2023-04-22T01:53:56;100964.81;;;7.82;82.16
58967;BME280;44744;51.894;5.080;2023-04-22T01:54:57;100968.91;;;7.81;82.16
58967;BME280;44744;51.894;5.080;2023-04-22T01:56:01;100964.34;;;7.81;82.05
58967;BME280;44744;51.894;5.080;2023-04-22T01:57:08;100962.98;;;7.80;82.15
58967;BME280;44744;51.894;5.080;2023-04-22T01:58:08;100960.60;;;7.78;82.04
58967;BME280;44744;51.894;5.080;2023-04-22T01:59:09;100962.38;;;7.77;82.06
58967;BME280;44744;51.894;5.080;2023-04-22T02:00:10;100962.64;;;7.75;81.99
58967;BME280;44744;51.894;5.080;2023-04-22T02:01:11;100958.88;;;7.73;81.93
58967;BME280;44744;51.894;5.080;2023-04-22T02:02:11;100958.45;;;7.70;81.78
58967;BME280;44744;51.894;5.080;2023-04-22T02:03:12;100960.91;;;7.66;81.67
58967;BME280;44744;51.894;5.080;2023-04-22T02:04:12;100960.08;;;7.64;81.67
58967;BME280;44744;51.894;5.080;2023-04-22T02:05:12;100962.28;;;7.63;81.78
58967;BME280;44744;51.894;5.080;2023-04-22T02:06:13;100962.55;;;7.60;81.52
58967;BME280;44744;51.894;5.080;2023-04-22T02:07:13;100965.45;;;7.58;81.32
58967;BME280;44744;51.894;5.080;2023-04-22T02:08:14;100966.08;;;7.56;81.47
58967;BME280;44744;51.894;5.080;2023-04-22T02:09:14;100963.54;;;7.53;81.53
58967;BME280;44744;51.894;5.080;2023-04-22T02:10:14;100962.88;;;7.52;81.80
58967;BME280;44744;51.894;5.080;2023-04-22T02:11:15;100961.70;;;7.50;81.95
58967;BME280;44744;51.894;5.080;2023-04-22T02:12:15;100960.48;;;7.50;81.97
58967;BME280;44744;51.894;5.080;2023-04-22T02:13:15;100959.63;;;7.49;81.88
58967;BME280;44744;51.894;5.080;2023-04-22T02:14:16;100960.74;;;7.48;81.97
58967;BME280;44744;51.894;5.080;2023-04-22T02:15:16;100960.83;;;7.46;81.73
58967;BME280;44744;51.894;5.080;2023-04-22T02:16:16;100962.14;;;7.44;81.80
58967;BME280;44744;51.894;5.080;2023-04-22T02:17:17;100955.73;;;7.42;81.85
58967;BME280;44744;51.894;5.080;2023-04-22T02:18:17;100958.73;;;7.41;81.94
58967;BME280;44744;51.894;5.080;2023-04-22T02:21:01;100952.36;;;7.33;81.98
58967;BME280;44744;51.894;5.080;2023-04-22T02:22:02;100955.88;;;7.33;82.04
58967;BME280;44744;51.894;5.080;2023-04-22T02:23:03;100954.14;;;7.33;82.09
58967;BME280;44744;51.894;5.080;2023-04-22T02:24:03;100954.69;;;7.32;82.14
58967;BME280;44744;51.894;5.080;2023-04-22T02:25:08;100953.83;;;7.32;81.99
58967;BME280;44744;51.894;5.080;2023-04-22T02:26:08;100953.02;;;7.30;82.15
58967;BME280;44744;51.894;5.080;2023-04-22T02:27:09;100953.25;;;7.28;82.21
58967;BME280;44744;51.894;5.080;2023-04-22T02:28:09;100951.16;;;7.28;82.40
58967;BME280;44744;51.894;5.080;2023-04-22T02:29:09;100951.50;;;7.28;82.55
58967;BME280;44744;51.894;5.080;2023-04-22T02:30:10;100945.85;;;7.29;82.60
58967;BME280;44744;51.894;5.080;2023-04-22T02:31:12;100942.36;;;7.28;82.55
58967;BME280;44744;51.894;5.080;2023-04-22T02:32:13;100944.30;;;7.28;82.61
58967;BME280;44744;51.894;5.080;2023-04-22T02:33:13;100941.65;;;7.28;82.88
58967;BME280;44744;51.894;5.080;2023-04-22T02:34:15;100939.03;;;7.28;82.85
58967;BME280;44744;51.894;5.080;2023-04-22T02:35:16;100939.80;;;7.26;82.73
58967;BME280;44744;51.894;5.080;2023-04-22T02:36:16;100946.09;;;7.27;82.95
58967;BME280;44744;51.894;5.080;2023-04-22T02:37:16;100944.69;;;7.27;82.98
58967;BME280;44744;51.894;5.080;2023-04-22T02:38:17;100945.72;;;7.28;83.02
58967;BME280;44744;51.894;5.080;2023-04-22T02:39:18;100946.94;;;7.28;83.17
58967;BME280;44744;51.894;5.080;2023-04-22T02:40:19;100944.61;;;7.29;83.18
58967;BME280;44744;51.894;5.080;2023-04-22T02:41:19;100942.96;;;7.30;83.38
58967;BME280;44744;51.894;5.080;2023-04-22T02:42:22;100942.96;;;7.31;83.46
58967;BME280;44744;51.894;5.080;2023-04-22T02:43:22;100939.44;;;7.31;83.55
58967;BME280;44744;51.894;5.080;2023-04-22T02:44:22;100937.70;;;7.30;83.58
58967;BME280;44744;51.894;5.080;2023-04-22T02:45:22;100935.96;;;7.30;83.44
58967;BME280;44744;51.894;5.080;2023-04-22T02:46:23;100937.03;;;7.29;83.44
58967;BME280;44744;51.894;5.080;2023-04-22T02:47:23;100935.98;;;7.29;83.71
58967;BME280;44744;51.894;5.080;2023-04-22T02:48:24;100928.44;;;7.29;83.79
58967;BME280;44744;51.894;5.080;2023-04-22T02:49:24;100932.00;;;7.28;83.80
58967;BME280;44744;51.894;5.080;2023-04-22T02:50:25;100932.86;;;7.28;83.86
58967;BME280;44744;51.894;5.080;2023-04-22T02:51:31;100933.07;;;7.27;83.88
58967;BME280;44744;51.894;5.080;2023-04-22T02:52:33;100928.12;;;7.28;84.03
58967;BME280;44744;51.894;5.080;2023-04-22T02:53:33;100925.82;;;7.28;84.34
58967;BME280;44744;51.894;5.080;2023-04-22T02:54:33;100924.90;;;7.29;84.13
58967;BME280;44744;51.894;5.080;2023-04-22T02:55:34;100928.90;;;7.31;84.34
58967;BME280;44744;51.894;5.080;2023-04-22T02:56:34;100926.39;;;7.31;84.37
58967;BME280;44744;51.894;5.080;2023-04-22T02:57:35;100924.42;;;7.32;84.40
58967;BME280;44744;51.894;5.080;2023-04-22T02:58:35;100921.94;;;7.33;84.71
58967;BME280;44744;51.894;5.080;2023-04-22T02:59:35;100916.99;;;7.33;84.74
58967;BME280;44744;51.894;5.080;2023-04-22T03:00:36;100920.35;;;7.33;84.68
58967;BME280;44744;51.894;5.080;2023-04-22T03:01:36;100917.51;;;7.34;84.95
58967;BME280;44744;51.894;5.080;2023-04-22T03:02:36;100921.64;;;7.35;85.10
58967;BME280;44744;51.894;5.080;2023-04-22T03:03:37;100918.80;;;7.36;85.08
58967;BME280;44744;51.894;5.080;2023-04-22T03:04:37;100917.92;;;7.37;85.07
58967;BME280;44744;51.894;5.080;2023-04-22T03:05:37;100918.42;;;7.37;85.07
58967;BME280;44744;51.894;5.080;2023-04-22T03:06:38;100917.39;;;7.37;85.06
58967;BME280;44744;51.894;5.080;2023-04-22T03:07:38;100918.08;;;7.37;85.19
58967;BME280;44744;51.894;5.080;2023-04-22T03:08:39;100911.63;;;7.35;85.36
58967;BME280;44744;51.894;5.080;2023-04-22T03:09:39;100913.34;;;7.37;85.28
58967;BME280;44744;51.894;5.080;2023-04-22T03:10:39;100915.81;;;7.36;85.42
58967;BME280;44744;51.894;5.080;2023-04-22T03:11:39;100914.91;;;7.37;85.48
58967;BME280;44744;51.894;5.080;2023-04-22T03:12:40;100912.80;;;7.37;85.50
58967;BME280;44744;51.894;5.080;2023-04-22T03:13:41;100911.89;;;7.38;85.76
58967;BME280;44744;51.894;5.080;2023-04-22T03:14:41;100909.11;;;7.37;85.78
58967;BME280;44744;51.894;5.080;2023-04-22T03:15:42;100911.30;;;7.40;86.04
58967;BME280;44744;51.894;5.080;2023-04-22T03:16:45;100911.27;;;7.40;86.01
58967;BME280;44744;51.894;5.080;2023-04-22T03:17:45;100908.04;;;7.42;86.13
58967;BME280;44744;51.894;5.080;2023-04-22T03:18:45;100904.33;;;7.42;86.40
58967;BME280;44744;51.894;5.080;2023-04-22T03:19:46;100904.11;;;7.43;86.24
58967;BME280;44744;51.894;5.080;2023-04-22T03:20:46;100902.52;;;7.43;86.18
58967;BME280;44744;51.894;5.080;2023-04-22T03:21:47;100901.64;;;7.44;86.24
58967;BME280;44744;51.894;5.080;2023-04-22T03:22:49;100899.70;;;7.43;86.41
58967;BME280;44744;51.894;5.080;2023-04-22T03:23:50;100901.28;;;7.43;86.49
58967;BME280;44744;51.894;5.080;2023-04-22T03:24:50;100903.05;;;7.43;86.66
58967;BME280;44744;51.894;5.080;2023-04-22T03:25:58;100901.13;;;7.43;86.57
58967;BME280;44744;51.894;5.080;2023-04-22T03:26:59;100903.06;;;7.43;86.61
58967;BME280;44744;51.894;5.080;2023-04-22T03:27:59;100900.93;;;7.43;86.80
58967;BME280;44744;51.894;5.080;2023-04-22T03:28:59;100899.65;;;7.44;86.79
58967;BME280;44744;51.894;5.080;2023-04-22T03:30:00;100898.96;;;7.44;86.77
58967;BME280;44744;51.894;5.080;2023-04-22T03:31:00;100899.31;;;7.44;86.78
58967;BME280;44744;51.894;5.080;2023-04-22T03:32:00;100895.50;;;7.43;86.99
58967;BME280;44744;51.894;5.080;2023-04-22T03:33:01;100894.41;;;7.44;86.88
58967;BME280;44744;51.894;5.080;2023-04-22T03:34:01;100896.36;;;7.43;86.96
58967;BME280;44744;51.894;5.080;2023-04-22T03:35:01;100893.73;;;7.43;87.06
58967;BME280;44744;51.894;5.080;2023-04-22T03:36:02;100895.40;;;7.45;87.40
58967;BME280;44744;51.894;5.080;2023-04-22T03:37:02;100894.02;;;7.45;87.40
58967;BME280;44744;51.894;5.080;2023-04-22T03:38:02;100891.55;;;7.44;87.35
58967;BME280;44744;51.894;5.080;2023-04-22T03:39:03;100889.44;;;7.45;87.37
58967;BME280;44744;51.894;5.080;2023-04-22T03:41:54;100887.73;;;7.43;87.47
58967;BME280;44744;51.894;5.080;2023-04-22T03:42:54;100888.42;;;7.44;87.47
58967;BME280;44744;51.894;5.080;2023-04-22T03:43:54;100886.45;;;7.44;87.64
58967;BME280;44744;51.894;5.080;2023-04-22T03:44:55;100883.44;;;7.45;87.79
58967;BME280;44744;51.894;5.080;2023-04-22T03:45:56;100882.52;;;7.46;88.01
58967;BME280;44744;51.894;5.080;2023-04-22T03:46:56;100879.30;;;7.48;87.95
58967;BME280;44744;51.894;5.080;2023-04-22T03:47:56;100878.23;;;7.47;87.86
58967;BME280;44744;51.894;5.080;2023-04-22T03:48:58;100881.24;;;7.47;87.88
58967;BME280;44744;51.894;5.080;2023-04-22T03:49:59;100879.44;;;7.48;88.11
58967;BME280;44744;51.894;5.080;2023-04-22T03:50:59;100881.68;;;7.49;88.14
58967;BME280;44744;51.894;5.080;2023-04-22T03:51:59;100873.21;;;7.50;88.34
58967;BME280;44744;51.894;5.080;2023-04-22T03:53:00;100874.41;;;7.50;88.20
58967;BME280;44744;51.894;5.080;2023-04-22T03:54:00;100874.96;;;7.50;88.22
58967;BME280;44744;51.894;5.080;2023-04-22T03:55:00;100875.14;;;7.50;88.29
58967;BME280;44744;51.894;5.080;2023-04-22T03:56:01;100874.77;;;7.51;88.40
58967;BME280;44744;51.894;5.080;2023-04-22T03:57:03;100873.46;;;7.52;88.64
58967;BME280;44744;51.894;5.080;2023-04-22T03:58:03;100865.90;;;7.52;88.53
58967;BME280;44744;51.894;5.080;2023-04-22T03:59:03;100865.34;;;7.53;88.58
58967;BME280;44744;51.894;5.080;2023-04-22T04:00:04;100862.89;;;7.53;88.60
58967;BME280;44744;51.894;5.080;2023-04-22T04:01:10;100859.88;;;7.53;88.69
58967;BME280;44744;51.894;5.080;2023-04-22T04:02:10;100861.83;;;7.53;88.66
58967;BME280;44744;51.894;5.080;2023-04-22T04:03:11;100861.24;;;7.54;88.73
58967;BME280;44744;51.894;5.080;2023-04-22T04:04:11;100861.73;;;7.55;88.91
58967;BME280;44744;51.894;5.080;2023-04-22T04:05:11;100857.98;;;7.57;88.97
58967;BME280;44744;51.894;5.080;2023-04-22T04:06:12;100854.92;;;7.58;89.08
58967;BME280;44744;51.894;5.080;2023-04-22T04:07:12;100853.08;;;7.60;89.05
58967;BME280;44744;51.894;5.080;2023-04-22T04:08:13;100854.63;;;7.61;89.14
58967;BME280;44744;51.894;5.080;2023-04-22T04:09:13;100852.25;;;7.63;89.19
58967;BME280;44744;51.894;5.080;2023-04-22T04:11:08;100852.90;;;7.64;89.23
58967;BME280;44744;51.894;5.080;2023-04-22T04:11:43;100851.11;;;7.65;89.18
58967;BME280;44744;51.894;5.080;2023-04-22T04:12:43;100852.73;;;7.64;89.11
58967;BME280;44744;51.894;5.080;2023-04-22T04:13:44;100851.66;;;7.64;89.22
58967;BME280;44744;51.894;5.080;2023-04-22T04:14:44;100850.55;;;7.65;89.25
58967;BME280;44744;51.894;5.080;2023-04-22T04:15:44;100851.95;;;7.66;89.17
58967;BME280;44744;51.894;5.080;2023-04-22T04:16:45;100847.59;;;7.65;89.30
58967;BME280;44744;51.894;5.080;2023-04-22T04:17:45;100845.61;;;7.66;89.29
58967;BME280;44744;51.894;5.080;2023-04-22T04:18:49;100846.30;;;7.66;89.31
58967;BME280;44744;51.894;5.080;2023-04-22T04:19:49;100845.08;;;7.66;89.30
58967;BME280;44744;51.894;5.080;2023-04-22T04:20:49;100847.23;;;7.65;89.60
58967;BME280;44744;51.894;5.080;2023-04-22T04:21:50;100843.45;;;7.63;89.56
58967;BME280;44744;51.894;5.080;2023-04-22T04:22:50;100842.27;;;7.62;89.73
58967;BME280;44744;51.894;5.080;2023-04-22T04:23:50;100845.58;;;7.63;89.78
58967;BME280;44744;51.894;5.080;2023-04-22T04:24:51;100844.65;;;7.63;89.73
58967;BME280;44744;51.894;5.080;2023-04-22T04:25:51;100844.82;;;7.64;89.59
58967;BME280;44744;51.894;5.080;2023-04-22T04:26:52;100845.50;;;7.64;89.69
58967;BME280;44744;51.894;5.080;2023-04-22T04:27:52;100846.57;;;7.64;89.71
58967;BME280;44744;51.894;5.080;2023-04-22T04:28:52;100844.13;;;7.63;89.81
58967;BME280;44744;51.894;5.080;2023-04-22T04:29:53;100842.86;;;7.64;89.81
58967;BME280;44744;51.894;5.080;2023-04-22T04:30:53;100837.39;;;7.65;89.91
58967;BME280;44744;51.894;5.080;2023-04-22T04:31:53;100833.45;;;7.66;90.05
58967;BME280;44744;51.894;5.080;2023-04-22T04:32:54;100829.73;;;7.67;89.92
58967;BME280;44744;51.894;5.080;2023-04-22T04:33:54;100827.06;;;7.67;89.88
58967;BME280;44744;51.894;5.080;2023-04-22T04:34:54;100829.47;;;7.69;89.98
58967;BME280;44744;51.894;5.080;2023-04-22T04:35:54;100831.59;;;7.68;90.25
58967;BME280;44744;51.894;5.080;2023-04-22T04:36:55;100831.70;;;7.66;90.14
58967;BME280;44744;51.894;5.080;2023-04-22T04:37:55;100832.45;;;7.65;90.13
58967;BME280;44744;51.894;5.080;2023-04-22T04:38:55;100828.76;;;7.65;90.21
58967;BME280;44744;51.894;5.080;2023-04-22T04:39:55;100827.70;;;7.65;90.30
58967;BME280;44744;51.894;5.080;2023-04-22T04:40:56;100826.95;;;7.66;90.30
58967;BME280;44744;51.894;5.080;2023-04-22T04:43:22;100828.16;;;7.67;90.28
58967;BME280;44744;51.894;5.080;2023-04-22T04:44:22;100831.14;;;7.67;90.33
58967;BME280;44744;51.894;5.080;2023-04-22T04:45:23;100832.02;;;7.67;90.28
58967;BME280;44744;51.894;5.080;2023-04-22T04:46:24;100832.06;;;7.66;90.43
58967;BME280;44744;51.894;5.080;2023-04-22T04:47:24;100834.69;;;7.66;90.22
58967;BME280;44744;51.894;5.080;2023-04-22T04:48:25;100835.77;;;7.65;90.39
58967;BME280;44744;51.894;5.080;2023-04-22T04:49:25;100833.10;;;7.66;90.51
58967;BME280;44744;51.894;5.080;2023-04-22T04:50:26;100834.27;;;7.67;90.55
58967;BME280;44744;51.894;5.080;2023-04-22T04:51:26;100831.47;;;7.67;90.48
58967;BME280;44744;51.894;5.080;2023-04-22T04:52:26;100832.95;;;7.69;90.64
58967;BME280;44744;51.894;5.080;2023-04-22T04:53:27;100833.29;;;7.70;90.57
58967;BME280;44744;51.894;5.080;2023-04-22T04:54:27;100830.45;;;7.71;90.37
58967;BME280;44744;51.894;5.080;2023-04-22T04:55:27;100832.17;;;7.72;90.38
58967;BME280;44744;51.894;5.080;2023-04-22T04:56:28;100830.92;;;7.72;90.42
58967;BME280;44744;51.894;5.080;2023-04-22T04:57:28;100831.80;;;7.72;90.40
58967;BME280;44744;51.894;5.080;2023-04-22T04:58:28;100829.54;;;7.71;90.54
58967;BME280;44744;51.894;5.080;2023-04-22T04:59:29;100831.33;;;7.71;90.47
58967;BME280;44744;51.894;5.080;2023-04-22T05:00:29;100832.85;;;7.72;90.46
58967;BME280;44744;51.894;5.080;2023-04-22T05:01:30;100832.13;;;7.73;90.56
58967;BME280;44744;51.894;5.080;2023-04-22T05:02:30;100831.09;;;7.72;90.50
58967;BME280;44744;51.894;5.080;2023-04-22T05:03:30;100832.13;;;7.73;90.39
58967;BME280;44744;51.894;5.080;2023-04-22T05:04:31;100833.21;;;7.72;90.55
58967;BME280;44744;51.894;5.080;2023-04-22T05:05:31;100833.39;;;7.72;90.41
58967;BME280;44744;51.894;5.080;2023-04-22T05:06:34;100835.52;;;7.72;90.50
58967;BME280;44744;51.894;5.080;2023-04-22T05:07:35;100835.02;;;7.71;90.44
58967;BME280;44744;51.894;5.080;2023-04-22T05:08:35;100835.38;;;7.71;90.37
58967;BME280;44744;51.894;5.080;2023-04-22T05:09:35;100833.11;;;7.70;90.45
58967;BME280;44744;51.894;5.080;2023-04-22T05:10:36;100830.11;;;7.70;90.40
58967;BME280;44744;51.894;5.080;2023-04-22T05:12:38;100832.23;;;7.70;90.51
58967;BME280;44744;51.894;5.080;2023-04-22T05:13:20;100832.52;;;7.67;90.64
58967;BME280;44744;51.894;5.080;2023-04-22T05:14:37;100833.08;;;7.67;90.53
58967;BME280;44744;51.894;5.080;2023-04-22T05:15:38;100839.99;;;7.66;90.60
58967;BME280;44744;51.894;5.080;2023-04-22T05:16:38;100843.03;;;7.64;90.83
58967;BME280;44744;51.894;5.080;2023-04-22T05:17:39;100843.18;;;7.65;90.81
58967;BME280;44744;51.894;5.080;2023-04-22T05:18:39;100842.52;;;7.64;90.80
58967;BME280;44744;51.894;5.080;2023-04-22T05:19:40;100842.48;;;7.65;90.95
58967;BME280;44744;51.894;5.080;2023-04-22T05:20:42;100842.31;;;7.65;90.89
58967;BME280;44744;51.894;5.080;2023-04-22T05:21:43;100840.07;;;7.64;91.04
58967;BME280;44744;51.894;5.080;2023-04-22T05:22:44;100842.39;;;7.63;91.24
58967;BME280;44744;51.894;5.080;2023-04-22T05:23:45;100845.52;;;7.64;91.20
58967;BME280;44744;51.894;5.080;2023-04-22T05:24:45;100841.79;;;7.65;91.35
58967;BME280;44744;51.894;5.080;2023-04-22T05:25:45;100844.75;;;7.65;91.49
58967;BME280;44744;51.894;5.080;2023-04-22T05:26:46;100842.44;;;7.66;91.40
58967;BME280;44744;51.894;5.080;2023-04-22T05:27:46;100841.54;;;7.66;91.65
58967;BME280;44744;51.894;5.080;2023-04-22T05:28:46;100841.70;;;7.67;91.48
58967;BME280;44744;51.894;5.080;2023-04-22T05:29:47;100843.62;;;7.67;91.74
58967;BME280;44744;51.894;5.080;2023-04-22T05:30:47;100840.79;;;7.67;91.85
58967;BME280;44744;51.894;5.080;2023-04-22T05:31:48;100843.06;;;7.68;91.87
58967;BME280;44744;51.894;5.080;2023-04-22T05:32:48;100842.53;;;7.68;92.03